createdAt,value
2023-05-21T00:02:11.427Z,12.10
2023-05-21T00:05:15.031Z,16.10
2023-05-21T00:08:17.005Z,11.60
2023-05-21T00:11:18.810Z,16.40
2023-05-21T00:14:20.565Z,14.60
2023-05-21T00:17:22.789Z,10.70
2023-05-21T00:20:24.682Z,11.20
2023-05-21T00:23:26.431Z,13.60
2023-05-21T00:26:28.178Z,11.50
2023-05-21T00:29:30.988Z,10.80
2023-05-21T00:32:32.718Z,12.90
2023-05-21T00:35:34.627Z,13.30
2023-05-21T00:38:37.481Z,10.50
2023-05-21T00:41:42.557Z,13.60
2023-05-21T00:44:45.712Z,9.70
2023-05-21T00:47:47.811Z,12.40
2023-05-21T00:50:49.985Z,10.80
2023-05-21T00:56:56.574Z,9.30
2023-05-21T01:03:00.617Z,9.70
2023-05-21T01:06:04.639Z,12.00
2023-05-21T01:09:06.635Z,10.30
2023-05-21T01:12:10.171Z,11.60
2023-05-21T01:15:12.576Z,11.60
2023-05-21T01:18:15.344Z,12.60
2023-05-21T01:21:19.621Z,11.50
2023-05-21T01:24:21.604Z,11.40
2023-05-21T01:27:23.332Z,11.20
2023-05-21T01:30:25.962Z,10.50
2023-05-21T01:33:36.745Z,12.10
2023-05-21T01:36:44.723Z,11.70
2023-05-21T01:39:55.855Z,11.80
2023-05-21T01:42:58.192Z,10.00
2023-05-21T01:46:01.633Z,10.40
2023-05-21T01:49:05.208Z,9.30
2023-05-21T01:52:07.057Z,10.00
2023-05-21T01:55:09.269Z,12.30
2023-05-21T01:58:10.967Z,10.90
2023-05-21T02:01:12.741Z,8.60
2023-05-21T02:04:14.516Z,10.90
2023-05-21T02:07:17.707Z,11.30
2023-05-21T02:10:19.628Z,12.00
2023-05-21T02:13:24.998Z,11.70
2023-05-21T02:16:27.934Z,12.50
2023-05-21T02:19:29.810Z,9.50
2023-05-21T02:22:31.592Z,13.40
2023-05-21T02:25:33.574Z,10.80
2023-05-21T02:31:39.208Z,9.20
2023-05-21T02:34:44.565Z,16.20
2023-05-21T02:37:46.624Z,10.60
2023-05-21T02:40:53.057Z,10.50
2023-05-21T02:43:55.492Z,9.80
2023-05-21T02:46:57.376Z,9.70
2023-05-21T02:50:00.309Z,11.30
2023-05-21T02:53:02.109Z,9.20
2023-05-21T02:56:04.548Z,11.00
2023-05-21T02:59:06.421Z,10.30
2023-05-21T03:02:08.903Z,9.90
2023-05-21T03:05:10.835Z,11.40
2023-05-21T03:08:12.688Z,10.00
2023-05-21T03:11:14.674Z,13.80
2023-05-21T03:14:16.619Z,9.50
2023-05-21T03:17:18.451Z,11.10
2023-05-21T03:20:20.450Z,9.00
2023-05-21T03:23:22.224Z,8.70
2023-05-21T03:26:26.955Z,13.60
2023-05-21T03:29:29.024Z,8.30
2023-05-21T03:32:33.266Z,11.60
2023-05-21T03:35:35.697Z,8.50
2023-05-21T03:38:37.993Z,9.00
2023-05-21T03:41:40.340Z,10.10
2023-05-21T03:44:45.351Z,9.60
2023-05-21T03:47:58.817Z,8.20
2023-05-21T03:51:00.989Z,10.00
2023-05-21T03:54:02.793Z,8.60
2023-05-21T03:57:04.714Z,8.40
2023-05-21T04:00:08.432Z,9.10
2023-05-21T04:03:17.710Z,10.90
2023-05-21T04:06:20.351Z,8.90
2023-05-21T04:12:23.961Z,9.70
2023-05-21T04:15:26.973Z,6.20
2023-05-21T04:18:28.800Z,10.40
2023-05-21T04:21:31.675Z,9.80
2023-05-21T04:24:33.442Z,7.60
2023-05-21T04:27:55.454Z,7.70
2023-05-21T04:30:57.387Z,8.30
2023-05-21T04:33:59.219Z,7.00
2023-05-21T04:37:01.757Z,9.60
2023-05-21T04:40:04.040Z,10.70
2023-05-21T04:46:09.150Z,8.40
2023-05-21T04:52:13.691Z,8.60
2023-05-21T04:55:18.454Z,7.40
2023-05-21T04:58:20.542Z,9.30
2023-05-21T05:01:23.065Z,7.10
2023-05-21T05:04:25.210Z,7.30
2023-05-21T05:07:26.879Z,7.80
2023-05-21T05:10:28.726Z,9.40
2023-05-21T05:13:30.758Z,7.60
2023-05-21T05:16:33.597Z,10.70
2023-05-21T05:19:35.951Z,8.70
2023-05-21T05:22:38.989Z,7.20
2023-05-21T05:25:40.814Z,6.50
2023-05-21T05:28:43.464Z,8.30
2023-05-21T05:31:45.356Z,7.30
2023-05-21T05:34:47.599Z,7.60
2023-05-21T05:37:50.067Z,7.60
2023-05-21T05:40:51.824Z,7.30
2023-05-21T05:43:53.737Z,6.90
2023-05-21T05:46:56.452Z,7.60
2023-05-21T05:49:58.160Z,11.20
2023-05-21T05:56:01.967Z,6.50
2023-05-21T05:59:05.442Z,7.10
2023-05-21T06:02:09.783Z,6.60
2023-05-21T06:05:11.721Z,7.50
2023-05-21T06:08:13.533Z,9.30
2023-05-21T06:11:16.584Z,6.40
2023-05-21T06:14:18.314Z,5.80
2023-05-21T06:17:20.166Z,6.10
2023-05-21T06:20:22.595Z,5.90
2023-05-21T06:23:24.501Z,6.00
2023-05-21T06:26:26.390Z,5.90
2023-05-21T06:29:28.263Z,12.40
2023-05-21T06:32:30.143Z,6.70
2023-05-21T06:35:34.272Z,5.70
2023-05-21T06:38:36.162Z,7.40
2023-05-21T06:41:37.897Z,8.00
2023-05-21T06:44:55.677Z,10.20
2023-05-21T06:48:03.061Z,10.00
2023-05-21T06:51:04.931Z,6.40
2023-05-21T06:54:07.823Z,10.60
2023-05-21T06:57:10.061Z,11.80
2023-05-21T07:00:12.533Z,7.20
2023-05-21T07:03:15.301Z,9.60
2023-05-21T07:06:17.622Z,8.60
2023-05-21T07:12:21.421Z,8.80
2023-05-21T07:18:25.454Z,8.80
2023-05-21T07:21:27.183Z,13.30
2023-05-21T07:27:31.211Z,10.30
2023-05-21T07:30:33.146Z,6.60
2023-05-21T07:33:36.072Z,7.00
2023-05-21T07:36:37.931Z,8.60
2023-05-21T07:39:39.995Z,10.80
2023-05-21T07:45:43.624Z,6.10
2023-05-21T07:48:45.888Z,7.40
2023-05-21T07:51:48.068Z,7.30
2023-05-21T07:54:50.536Z,7.80
2023-05-21T07:57:52.657Z,7.10
2023-05-21T08:01:00.169Z,8.70
2023-05-21T08:04:05.467Z,5.20
2023-05-21T08:07:07.540Z,6.20
2023-05-21T08:10:09.513Z,7.20
2023-05-21T08:16:13.875Z,6.70
2023-05-21T08:19:16.157Z,8.60
2023-05-21T08:28:22.967Z,7.10
2023-05-21T08:31:26.701Z,4.60
2023-05-21T08:34:29.529Z,3.60
2023-05-21T08:37:54.183Z,4.60
2023-05-21T08:41:21.605Z,4.00
2023-05-21T08:44:26.042Z,7.40
2023-05-21T08:47:33.750Z,3.80
2023-05-21T08:50:37.460Z,7.00
2023-05-21T08:53:45.176Z,5.70
2023-05-21T08:56:48.898Z,8.00
2023-05-21T08:59:51.435Z,4.00
2023-05-21T09:03:01.486Z,5.60
2023-05-21T09:06:03.773Z,3.50
2023-05-21T09:09:33.191Z,4.90
2023-05-21T09:12:35.779Z,5.90
2023-05-21T09:15:38.257Z,6.20
2023-05-21T09:18:41.376Z,3.40
2023-05-21T09:21:54.942Z,4.10
2023-05-21T09:24:59.022Z,4.20
2023-05-21T09:28:01.397Z,4.00
2023-05-21T09:31:06.262Z,4.40
2023-05-21T09:34:13.603Z,4.80
2023-05-21T09:37:27.017Z,5.20
2023-05-21T09:40:30.052Z,5.60
2023-05-21T09:43:32.409Z,4.10
2023-05-21T09:46:39.905Z,6.90
2023-05-21T09:49:43.617Z,6.40
2023-05-21T09:52:46.245Z,8.30
2023-05-21T09:55:57.028Z,4.20
2023-05-21T09:59:06.422Z,8.80
2023-05-21T10:02:21.714Z,8.80
2023-05-21T10:05:27.456Z,6.80
2023-05-21T10:08:35.659Z,4.90
2023-05-21T10:11:39.265Z,5.60
2023-05-21T10:14:44.268Z,4.20
2023-05-21T10:17:48.144Z,4.40
2023-05-21T10:20:50.827Z,4.20
2023-05-21T10:23:53.682Z,5.00
2023-05-21T10:26:55.430Z,3.30
2023-05-21T10:29:59.034Z,4.20
2023-05-21T10:33:01.365Z,4.20
2023-05-21T10:36:03.470Z,4.80
2023-05-21T10:39:07.159Z,2.20
2023-05-21T10:42:20.337Z,3.10
2023-05-21T10:45:45.666Z,2.70
2023-05-21T10:48:55.766Z,2.10
2023-05-21T10:52:24.393Z,4.40
2023-05-21T10:55:41.649Z,6.40
2023-05-21T10:59:17.828Z,7.20
2023-05-21T11:02:20.828Z,3.90
2023-05-21T11:05:50.204Z,5.30
2023-05-21T11:08:54.919Z,4.60
2023-05-21T11:11:58.439Z,3.20
2023-05-21T11:15:00.303Z,5.20
2023-05-21T11:21:09.772Z,5.40
2023-05-21T11:24:18.706Z,4.20
2023-05-21T11:27:40.081Z,4.70
2023-05-21T11:30:42.289Z,4.30
2023-05-21T11:33:47.058Z,4.70
2023-05-21T11:36:49.327Z,3.20
2023-05-21T11:39:51.618Z,2.90
2023-05-21T11:42:55.185Z,2.90
2023-05-21T11:45:57.274Z,5.20
2023-05-21T11:49:00.152Z,3.40
2023-05-21T11:52:04.011Z,7.30
2023-05-21T11:55:06.732Z,5.10
2023-05-21T11:58:12.925Z,3.50
2023-05-21T12:01:27.129Z,4.00
2023-05-21T12:04:35.781Z,3.70
2023-05-21T12:07:38.135Z,2.90
2023-05-21T12:10:39.943Z,3.90
2023-05-21T12:13:41.902Z,6.80
2023-05-21T12:19:46.808Z,5.30
2023-05-21T12:22:49.286Z,3.80
2023-05-21T12:25:52.928Z,3.00
2023-05-21T12:28:55.611Z,3.70
2023-05-21T12:32:05.884Z,3.50
2023-05-21T12:35:08.132Z,5.00
2023-05-21T12:41:14.262Z,2.40
2023-05-21T12:44:16.093Z,5.40
2023-05-21T12:50:21.099Z,4.40
2023-05-21T12:53:22.944Z,7.10
2023-05-21T12:59:27.207Z,3.40
2023-05-21T13:05:34.942Z,6.50
2023-05-21T13:08:37.844Z,5.30
2023-05-21T13:11:39.711Z,5.20
2023-05-21T13:17:44.602Z,2.90
2023-05-21T13:20:47.275Z,4.40
2023-05-21T13:23:49.589Z,2.70
2023-05-21T13:26:51.497Z,2.80
2023-05-21T13:32:55.318Z,4.50
2023-05-21T13:35:57.202Z,3.50
2023-05-21T13:42:01.292Z,4.80
2023-05-21T13:45:03.875Z,5.30
2023-05-21T13:48:05.916Z,4.10
2023-05-21T13:51:07.756Z,5.70
2023-05-21T13:57:11.121Z,3.00
2023-05-21T14:03:16.378Z,5.90
2023-05-21T14:06:18.219Z,8.70
2023-05-21T14:12:22.020Z,4.60
2023-05-21T14:15:23.720Z,6.30
2023-05-21T14:18:25.471Z,3.30
2023-05-21T14:21:27.192Z,4.70
2023-05-21T14:24:29.008Z,4.10
2023-05-21T14:30:32.490Z,3.90
2023-05-21T14:33:36.107Z,4.70
2023-05-21T14:36:37.842Z,3.30
2023-05-21T14:39:40.758Z,4.50
2023-05-21T14:42:44.972Z,5.30
2023-05-21T14:45:46.984Z,5.20
2023-05-21T14:48:48.818Z,5.30
2023-05-21T14:51:50.820Z,5.60
2023-05-21T14:54:52.879Z,7.20
2023-05-21T14:57:55.312Z,3.00
2023-05-21T15:00:58.470Z,7.10
2023-05-21T15:04:02.168Z,3.50
2023-05-21T15:07:04.167Z,5.20
2023-05-21T15:10:06.618Z,6.70
2023-05-21T15:13:08.474Z,4.40
2023-05-21T15:16:10.254Z,2.70
2023-05-21T15:22:13.712Z,4.40
2023-05-21T15:25:18.487Z,5.50
2023-05-21T15:28:20.289Z,3.60
2023-05-21T15:31:22.189Z,4.00
2023-05-21T15:37:25.866Z,4.40
2023-05-21T15:43:29.289Z,3.20
2023-05-21T15:46:31.009Z,4.80
2023-05-21T15:49:33.271Z,3.10
2023-05-21T15:52:36.557Z,3.70
2023-05-21T15:55:38.650Z,4.10
2023-05-21T15:58:40.713Z,4.80
2023-05-21T16:01:42.822Z,6.60
2023-05-21T16:04:46.195Z,5.30
2023-05-21T16:07:48.527Z,4.20
2023-05-21T16:10:50.273Z,3.80
2023-05-21T16:13:53.320Z,4.80
2023-05-21T16:16:57.913Z,5.90
2023-05-21T16:19:59.813Z,3.00
2023-05-21T16:26:06.263Z,6.30
2023-05-21T16:29:07.995Z,3.30
2023-05-21T16:32:12.231Z,5.60
2023-05-21T16:35:14.236Z,3.70
2023-05-21T16:41:20.205Z,4.10
2023-05-21T16:44:21.971Z,4.00
2023-05-21T16:47:23.674Z,5.70
2023-05-21T16:50:25.952Z,6.20
2023-05-21T16:53:27.832Z,3.00
2023-05-21T16:56:30.806Z,3.30
2023-05-21T16:59:34.804Z,5.20
2023-05-21T17:02:37.960Z,8.30
2023-05-21T17:05:39.949Z,6.70
2023-05-21T17:08:42.145Z,3.60
2023-05-21T17:11:44.223Z,5.90
2023-05-21T17:14:45.891Z,5.20
2023-05-21T17:17:47.901Z,6.40
2023-05-21T17:20:49.874Z,4.60
2023-05-21T17:23:53.061Z,5.30
2023-05-21T17:26:54.838Z,5.20
2023-05-21T17:29:57.220Z,5.20
2023-05-21T17:33:01.247Z,6.10
2023-05-21T17:36:03.181Z,6.30
2023-05-21T17:39:05.027Z,4.70
2023-05-21T17:42:06.886Z,6.80
2023-05-21T17:45:08.968Z,4.00
2023-05-21T17:48:11.350Z,4.70
2023-05-21T17:51:13.264Z,4.40
2023-05-21T17:54:15.303Z,4.10
2023-05-21T17:57:19.032Z,4.60
2023-05-21T18:00:20.843Z,6.30
2023-05-21T18:03:22.645Z,4.40
2023-05-21T18:06:24.399Z,5.10
2023-05-21T18:09:28.708Z,4.00
2023-05-21T18:12:30.504Z,5.70
2023-05-21T18:15:32.903Z,5.40
2023-05-21T18:18:34.650Z,3.50
2023-05-21T18:21:36.961Z,4.10
2023-05-21T18:24:39.301Z,2.90
2023-05-21T18:27:41.248Z,7.10
2023-05-21T18:30:43.321Z,4.90
2023-05-21T18:33:45.112Z,4.60
2023-05-21T18:36:47.747Z,5.30
2023-05-21T18:39:49.556Z,8.60
2023-05-21T18:42:51.469Z,6.60
2023-05-21T18:45:53.278Z,6.50
2023-05-21T18:48:58.109Z,5.90
2023-05-21T18:51:59.980Z,4.90
2023-05-21T18:55:02.096Z,7.30
2023-05-21T19:01:05.918Z,12.30
2023-05-21T19:07:09.321Z,7.90
2023-05-21T19:10:11.943Z,5.50
2023-05-21T19:13:14.234Z,7.10
2023-05-21T19:16:16.024Z,6.00
2023-05-21T19:19:17.946Z,6.50
2023-05-21T19:22:19.774Z,7.00
2023-05-21T19:25:21.590Z,7.20
2023-05-21T19:28:23.362Z,6.60
2023-05-21T19:31:25.628Z,8.00
2023-05-21T19:34:27.575Z,6.90
2023-05-21T19:37:29.399Z,5.30
2023-05-21T19:40:31.188Z,6.50
2023-05-21T19:43:32.909Z,7.80
2023-05-21T19:46:34.751Z,6.20
2023-05-21T19:49:36.669Z,6.70
2023-05-21T19:52:38.787Z,8.40
2023-05-21T19:58:46.390Z,7.20
2023-05-21T20:01:48.291Z,8.50
2023-05-21T20:04:50.706Z,6.90
2023-05-21T20:10:54.210Z,9.20
2023-05-21T20:13:56.679Z,6.40
2023-05-21T20:16:58.605Z,8.40
2023-05-21T20:23:03.047Z,6.80
2023-05-21T20:26:04.858Z,5.30
2023-05-21T20:29:07.358Z,6.70
2023-05-21T20:32:09.437Z,7.20
2023-05-21T20:35:11.892Z,4.40
2023-05-21T20:38:15.168Z,9.00
2023-05-21T20:41:17.237Z,5.20
2023-05-21T20:47:22.768Z,5.70
2023-05-21T20:50:25.396Z,8.50
2023-05-21T20:53:27.185Z,8.00
2023-05-21T20:56:40.931Z,4.10
2023-05-21T20:59:43.686Z,8.90
2023-05-21T21:02:45.574Z,4.60
2023-05-21T21:05:47.606Z,4.30
2023-05-21T21:08:49.497Z,5.40
2023-05-21T21:11:51.312Z,9.50
2023-05-21T21:14:53.515Z,6.40
2023-05-21T21:20:57.072Z,6.60
2023-05-21T21:23:58.837Z,5.80
2023-05-21T21:27:00.836Z,3.80
2023-05-21T21:30:04.068Z,4.50
2023-05-21T21:33:07.304Z,7.40
2023-05-21T21:36:12.367Z,5.20
2023-05-21T21:39:14.051Z,7.10
2023-05-21T21:42:15.791Z,7.70
2023-05-21T21:45:17.732Z,5.60
2023-05-21T21:48:19.432Z,8.20
2023-05-21T21:51:23.130Z,4.80
2023-05-21T21:54:27.023Z,8.30
2023-05-21T21:57:29.398Z,5.60
2023-05-21T22:00:31.196Z,13.00
2023-05-21T22:03:36.224Z,4.50
2023-05-21T22:06:38.424Z,9.00
2023-05-21T22:12:42.897Z,4.90
2023-05-21T22:15:45.203Z,7.90
2023-05-21T22:18:46.924Z,4.30
2023-05-21T22:21:49.522Z,2.90
2023-05-21T22:24:54.435Z,6.10
2023-05-21T22:27:56.242Z,2.90
2023-05-21T22:30:58.562Z,5.70
2023-05-21T22:34:00.361Z,4.00
2023-05-21T22:37:02.127Z,5.40
2023-05-21T22:40:06.302Z,4.50
2023-05-21T22:43:08.155Z,10.20
2023-05-21T22:46:10.196Z,5.50
2023-05-21T22:52:13.941Z,4.20
2023-05-21T22:55:15.806Z,3.90
2023-05-21T22:58:17.945Z,3.60
2023-05-21T23:04:40.140Z,5.40
2023-05-21T23:07:45.982Z,5.00
2023-05-21T23:10:47.866Z,4.90
2023-05-21T23:13:49.588Z,5.40
2023-05-21T23:16:53.275Z,6.30
2023-05-21T23:19:55.540Z,4.20
2023-05-21T23:22:57.335Z,4.30
2023-05-21T23:25:59.699Z,3.30
2023-05-21T23:29:01.736Z,4.40
2023-05-21T23:32:04.468Z,3.80
2023-05-21T23:35:08.655Z,4.50
2023-05-21T23:38:10.452Z,5.90
2023-05-21T23:41:12.762Z,4.90
2023-05-21T23:44:14.954Z,5.00
2023-05-21T23:50:18.335Z,4.60
2023-05-21T23:53:20.193Z,4.40
2023-05-21T23:56:22.138Z,4.60
2023-05-21T23:59:23.888Z,4.60
